sensor_id;sensor_type;location;lat;lon;timestamp;pressure;altitude;pressure_sealevel;temperature;humidity
49567;BME280;35472;50.514;30.448;2022-07-04T00:01:59;100160.13;;;22.02;76.81
49567;BME280;35472;50.514;30.448;2022-07-04T00:04:25;100165.00;;;22.05;76.12
49567;BME280;35472;50.514;30.448;2022-07-04T00:06:51;100158.03;;;21.87;77.18
49567;BME280;35472;50.514;30.448;2022-07-04T00:09:16;100164.28;;;22.08;75.75
49567;BME280;35472;50.514;30.448;2022-07-04T00:11:42;100164.63;;;21.94;76.82
49567;BME280;35472;50.514;30.448;2022-07-04T00:14:07;100162.56;;;22.04;75.77
49567;BME280;35472;50.514;30.448;2022-07-04T00:16:33;100160.03;;;21.99;75.82
49567;BME280;35472;50.514;30.448;2022-07-04T00:19:00;100156.78;;;21.84;76.68
49567;BME280;35472;50.514;30.448;2022-07-04T00:21:25;100152.34;;;21.83;77.11
49567;BME280;35472;50.514;30.448;2022-07-04T00:23:51;100158.19;;;22.03;76.17
49567;BME280;35472;50.514;30.448;2022-07-04T00:26:16;100156.25;;;21.70;78.63
49567;BME280;35472;50.514;30.448;2022-07-04T00:28:42;100155.13;;;21.95;76.11
49567;BME280;35472;50.514;30.448;2022-07-04T00:31:08;100150.50;;;21.87;77.17
49567;BME280;35472;50.514;30.448;2022-07-04T00:33:33;100162.84;;;21.78;77.02
49567;BME280;35472;50.514;30.448;2022-07-04T00:35:59;100154.41;;;21.62;78.06
49567;BME280;35472;50.514;30.448;2022-07-04T00:38:24;100155.38;;;21.78;78.14
49567;BME280;35472;50.514;30.448;2022-07-04T00:40:50;100141.25;;;21.83;77.23
49567;BME280;35472;50.514;30.448;2022-07-04T00:43:26;100153.47;;;21.70;78.43
49567;BME280;35472;50.514;30.448;2022-07-04T00:45:51;100156.81;;;21.63;77.95
49567;BME280;35472;50.514;30.448;2022-07-04T00:48:17;100164.59;;;21.70;78.00
49567;BME280;35472;50.514;30.448;2022-07-04T00:50:45;100162.59;;;21.58;78.65
49567;BME280;35472;50.514;30.448;2022-07-04T00:53:13;100163.56;;;21.75;77.57
49567;BME280;35472;50.514;30.448;2022-07-04T00:55:39;100168.41;;;21.78;77.16
49567;BME280;35472;50.514;30.448;2022-07-04T00:58:05;100159.66;;;21.88;76.99
49567;BME280;35472;50.514;30.448;2022-07-04T01:00:30;100166.00;;;21.88;76.56
49567;BME280;35472;50.514;30.448;2022-07-04T01:02:56;100163.13;;;21.85;77.16
49567;BME280;35472;50.514;30.448;2022-07-04T01:05:21;100166.19;;;21.71;77.33
49567;BME280;35472;50.514;30.448;2022-07-04T01:07:47;100157.31;;;21.90;75.81
49567;BME280;35472;50.514;30.448;2022-07-04T01:10:12;100152.13;;;21.88;76.27
49567;BME280;35472;50.514;30.448;2022-07-04T01:12:37;100149.84;;;21.90;75.07
49567;BME280;35472;50.514;30.448;2022-07-04T01:15:05;100148.91;;;21.99;75.84
49567;BME280;35472;50.514;30.448;2022-07-04T01:17:31;100151.44;;;21.91;76.00
49567;BME280;35472;50.514;30.448;2022-07-04T01:19:57;100158.84;;;21.87;75.21
49567;BME280;35472;50.514;30.448;2022-07-04T01:22:22;100147.84;;;21.79;76.30
49567;BME280;35472;50.514;30.448;2022-07-04T01:24:48;100153.75;;;21.89;75.57
49567;BME280;35472;50.514;30.448;2022-07-04T01:27:14;100148.53;;;21.76;75.92
49567;BME280;35472;50.514;30.448;2022-07-04T01:29:40;100145.28;;;21.74;76.19
49567;BME280;35472;50.514;30.448;2022-07-04T01:32:07;100150.59;;;21.66;76.14
49567;BME280;35472;50.514;30.448;2022-07-04T01:34:33;100154.28;;;21.71;76.25
49567;BME280;35472;50.514;30.448;2022-07-04T01:36:59;100153.72;;;21.77;75.69
49567;BME280;35472;50.514;30.448;2022-07-04T01:39:29;100145.75;;;21.76;75.77
49567;BME280;35472;50.514;30.448;2022-07-04T01:41:55;100147.91;;;21.58;76.56
49567;BME280;35472;50.514;30.448;2022-07-04T01:44:20;100148.16;;;21.77;75.33
49567;BME280;35472;50.514;30.448;2022-07-04T01:46:46;100140.91;;;21.73;75.77
49567;BME280;35472;50.514;30.448;2022-07-04T01:49:11;100141.13;;;21.80;74.65
49567;BME280;35472;50.514;30.448;2022-07-04T01:51:47;100138.72;;;21.78;75.22
49567;BME280;35472;50.514;30.448;2022-07-04T01:54:13;100143.59;;;21.48;76.48
49567;BME280;35472;50.514;30.448;2022-07-04T01:56:42;100142.13;;;21.63;75.91
49567;BME280;35472;50.514;30.448;2022-07-04T01:59:08;100157.72;;;21.55;76.55
49567;BME280;35472;50.514;30.448;2022-07-04T02:01:34;100151.47;;;21.58;77.08
49567;BME280;35472;50.514;30.448;2022-07-04T02:04:02;100161.19;;;21.52;76.61
49567;BME280;35472;50.514;30.448;2022-07-04T02:06:28;100163.16;;;21.52;77.23
49567;BME280;35472;50.514;30.448;2022-07-04T02:08:54;100167.84;;;21.39;77.94
49567;BME280;35472;50.514;30.448;2022-07-04T02:11:39;100168.38;;;21.65;71.61
49567;BME280;35472;50.514;30.448;2022-07-04T02:14:24;100169.78;;;22.29;69.77
49567;BME280;35472;50.514;30.448;2022-07-04T02:16:49;100156.00;;;22.69;67.10
49567;BME280;35472;50.514;30.448;2022-07-04T02:19:15;100161.09;;;22.55;69.49
49567;BME280;35472;50.514;30.448;2022-07-04T02:21:40;100171.41;;;22.55;70.74
49567;BME280;35472;50.514;30.448;2022-07-04T02:24:06;100169.72;;;23.02;67.69
49567;BME280;35472;50.514;30.448;2022-07-04T02:26:31;100164.53;;;23.57;65.73
49567;BME280;35472;50.514;30.448;2022-07-04T02:28:57;100165.78;;;24.03;63.48
49567;BME280;35472;50.514;30.448;2022-07-04T02:31:22;100167.94;;;24.42;61.80
49567;BME280;35472;50.514;30.448;2022-07-04T02:33:48;100164.31;;;24.57;60.32
49567;BME280;35472;50.514;30.448;2022-07-04T02:36:14;100169.97;;;24.60;61.86
49567;BME280;35472;50.514;30.448;2022-07-04T02:38:39;100162.47;;;25.16;59.50
49567;BME280;35472;50.514;30.448;2022-07-04T02:41:05;100157.66;;;25.55;56.73
49567;BME280;35472;50.514;30.448;2022-07-04T02:43:30;100157.88;;;25.46;57.22
49567;BME280;35472;50.514;30.448;2022-07-04T02:45:56;100164.94;;;25.40;57.69
49567;BME280;35472;50.514;30.448;2022-07-04T02:48:21;100171.16;;;25.91;55.90
49567;BME280;35472;50.514;30.448;2022-07-04T02:50:46;100167.50;;;26.60;54.71
49567;BME280;35472;50.514;30.448;2022-07-04T02:53:12;100171.47;;;26.09;56.33
49567;BME280;35472;50.514;30.448;2022-07-04T02:55:37;100169.41;;;26.29;53.88
49567;BME280;35472;50.514;30.448;2022-07-04T02:58:03;100168.38;;;26.64;52.69
49567;BME280;35472;50.514;30.448;2022-07-04T03:00:28;100165.72;;;26.74;52.70
49567;BME280;35472;50.514;30.448;2022-07-04T03:02:54;100162.09;;;27.00;51.59
49567;BME280;35472;50.514;30.448;2022-07-04T03:05:19;100164.59;;;26.53;52.06
49567;BME280;35472;50.514;30.448;2022-07-04T03:07:45;100169.72;;;26.47;54.47
49567;BME280;35472;50.514;30.448;2022-07-04T03:10:11;100168.94;;;26.50;53.41
49567;BME280;35472;50.514;30.448;2022-07-04T03:12:36;100169.41;;;27.09;51.58
49567;BME280;35472;50.514;30.448;2022-07-04T03:15:02;100173.38;;;26.78;51.51
49567;BME280;35472;50.514;30.448;2022-07-04T03:17:28;100172.28;;;28.24;49.32
49567;BME280;35472;50.514;30.448;2022-07-04T03:19:56;100175.72;;;28.06;48.88
49567;BME280;35472;50.514;30.448;2022-07-04T03:22:21;100175.25;;;29.00;46.78
49567;BME280;35472;50.514;30.448;2022-07-04T03:24:47;100171.78;;;29.35;45.17
49567;BME280;35472;50.514;30.448;2022-07-04T03:27:12;100163.81;;;29.45;44.41
49567;BME280;35472;50.514;30.448;2022-07-04T03:29:38;100168.75;;;30.01;42.84
49567;BME280;35472;50.514;30.448;2022-07-04T03:32:04;100170.34;;;29.88;44.13
49567;BME280;35472;50.514;30.448;2022-07-04T03:34:29;100169.56;;;30.73;41.75
49567;BME280;35472;50.514;30.448;2022-07-04T03:36:55;100179.63;;;30.49;41.90
49567;BME280;35472;50.514;30.448;2022-07-04T03:39:20;100177.22;;;30.19;42.54
49567;BME280;35472;50.514;30.448;2022-07-04T03:41:47;100171.28;;;31.58;40.10
49567;BME280;35472;50.514;30.448;2022-07-04T03:44:13;100170.25;;;31.97;39.40
49567;BME280;35472;50.514;30.448;2022-07-04T03:46:38;100171.84;;;31.28;40.74
49567;BME280;35472;50.514;30.448;2022-07-04T03:49:04;100172.41;;;31.71;40.03
49567;BME280;35472;50.514;30.448;2022-07-04T03:51:30;100168.31;;;31.87;39.91
49567;BME280;35472;50.514;30.448;2022-07-04T03:53:56;100165.28;;;32.15;38.40
49567;BME280;35472;50.514;30.448;2022-07-04T03:56:22;100163.19;;;32.71;38.04
49567;BME280;35472;50.514;30.448;2022-07-04T03:58:47;100164.44;;;32.67;37.19
49567;BME280;35472;50.514;30.448;2022-07-04T04:01:17;100163.56;;;33.11;36.09
49567;BME280;35472;50.514;30.448;2022-07-04T04:03:43;100164.44;;;33.39;36.36
49567;BME280;35472;50.514;30.448;2022-07-04T04:06:26;100155.63;;;32.13;37.34
49567;BME280;35472;50.514;30.448;2022-07-04T04:08:52;100162.56;;;32.53;36.38
49567;BME280;35472;50.514;30.448;2022-07-04T04:11:17;100154.13;;;34.09;34.47
49567;BME280;35472;50.514;30.448;2022-07-04T04:13:43;100154.88;;;34.13;34.69
49567;BME280;35472;50.514;30.448;2022-07-04T04:16:09;100158.50;;;33.60;34.68
49567;BME280;35472;50.514;30.448;2022-07-04T04:18:34;100153.31;;;34.79;32.27
49567;BME280;35472;50.514;30.448;2022-07-04T04:20:59;100148.09;;;35.37;31.17
49567;BME280;35472;50.514;30.448;2022-07-04T04:23:25;100151.88;;;34.48;32.13
49567;BME280;35472;50.514;30.448;2022-07-04T04:25:50;100153.25;;;34.83;31.90
49567;BME280;35472;50.514;30.448;2022-07-04T04:28:16;100149.34;;;34.53;32.23
49567;BME280;35472;50.514;30.448;2022-07-04T04:30:41;100151.19;;;35.79;30.81
49567;BME280;35472;50.514;30.448;2022-07-04T04:33:06;100150.56;;;34.52;32.25
49567;BME280;35472;50.514;30.448;2022-07-04T04:35:32;100157.03;;;33.48;33.51
49567;BME280;35472;50.514;30.448;2022-07-04T04:37:57;100153.81;;;36.39;30.36
49567;BME280;35472;50.514;30.448;2022-07-04T04:40:23;100157.59;;;34.67;31.46
49567;BME280;35472;50.514;30.448;2022-07-04T04:42:48;100151.22;;;35.23;31.92
49567;BME280;35472;50.514;30.448;2022-07-04T04:45:14;100150.47;;;36.44;30.25
49567;BME280;35472;50.514;30.448;2022-07-04T04:47:39;100148.66;;;36.50;29.96
49567;BME280;35472;50.514;30.448;2022-07-04T04:50:06;100152.13;;;36.09;30.43
49567;BME280;35472;50.514;30.448;2022-07-04T04:52:35;100156.31;;;35.12;31.69
49567;BME280;35472;50.514;30.448;2022-07-04T04:55:01;100157.69;;;36.77;29.19
49567;BME280;35472;50.514;30.448;2022-07-04T04:57:26;100150.97;;;37.13;28.01
49567;BME280;35472;50.514;30.448;2022-07-04T04:59:52;100155.91;;;36.67;29.27
49567;BME280;35472;50.514;30.448;2022-07-04T05:02:17;100157.09;;;37.41;28.54
49567;BME280;35472;50.514;30.448;2022-07-04T05:04:42;100154.97;;;36.87;29.11
49567;BME280;35472;50.514;30.448;2022-07-04T05:07:08;100158.47;;;37.07;28.70
49567;BME280;35472;50.514;30.448;2022-07-04T05:09:33;100153.38;;;37.69;28.03
49567;BME280;35472;50.514;30.448;2022-07-04T05:11:58;100149.97;;;38.00;26.98
49567;BME280;35472;50.514;30.448;2022-07-04T05:14:25;100147.44;;;38.27;26.34
49567;BME280;35472;50.514;30.448;2022-07-04T05:16:50;100150.53;;;37.44;26.66
49567;BME280;35472;50.514;30.448;2022-07-04T05:19:16;100149.03;;;36.03;28.60
49567;BME280;35472;50.514;30.448;2022-07-04T05:21:41;100150.06;;;35.20;29.73
49567;BME280;35472;50.514;30.448;2022-07-04T05:24:06;100145.28;;;35.90;28.74
49567;BME280;35472;50.514;30.448;2022-07-04T05:26:32;100140.97;;;37.50;27.30
49567;BME280;35472;50.514;30.448;2022-07-04T05:28:57;100136.22;;;37.18;27.50
49567;BME280;35472;50.514;30.448;2022-07-04T05:31:23;100138.88;;;38.15;27.25
49567;BME280;35472;50.514;30.448;2022-07-04T05:33:51;100143.91;;;37.60;27.36
49567;BME280;35472;50.514;30.448;2022-07-04T05:36:16;100142.88;;;36.99;28.17
49567;BME280;35472;50.514;30.448;2022-07-04T05:38:42;100144.94;;;37.11;27.52
49567;BME280;35472;50.514;30.448;2022-07-04T05:41:07;100142.88;;;38.30;26.43
49567;BME280;35472;50.514;30.448;2022-07-04T05:43:33;100143.16;;;39.45;24.92
49567;BME280;35472;50.514;30.448;2022-07-04T05:45:59;100140.16;;;38.61;25.22
49567;BME280;35472;50.514;30.448;2022-07-04T05:48:24;100139.94;;;37.95;25.94
49567;BME280;35472;50.514;30.448;2022-07-04T05:50:50;100139.84;;;39.47;24.23
49567;BME280;35472;50.514;30.448;2022-07-04T05:53:15;100144.94;;;39.52;24.39
49567;BME280;35472;50.514;30.448;2022-07-04T05:55:40;100137.03;;;38.68;25.90
49567;BME280;35472;50.514;30.448;2022-07-04T05:58:06;100142.56;;;38.02;26.42
49567;BME280;35472;50.514;30.448;2022-07-04T06:00:31;100137.53;;;39.10;25.02
49567;BME280;35472;50.514;30.448;2022-07-04T06:02:57;100144.38;;;37.03;26.27
49567;BME280;35472;50.514;30.448;2022-07-04T06:05:22;100129.88;;;36.23;27.03
49567;BME280;35472;50.514;30.448;2022-07-04T06:07:48;100141.63;;;37.80;25.61
49567;BME280;35472;50.514;30.448;2022-07-04T06:10:14;100133.84;;;38.79;24.88
49567;BME280;35472;50.514;30.448;2022-07-04T06:12:39;100127.75;;;38.89;23.89
49567;BME280;35472;50.514;30.448;2022-07-04T06:15:05;100123.38;;;38.63;24.85
49567;BME280;35472;50.514;30.448;2022-07-04T06:17:31;100120.94;;;39.71;23.99
49567;BME280;35472;50.514;30.448;2022-07-04T06:19:57;100123.16;;;39.14;23.49
49567;BME280;35472;50.514;30.448;2022-07-04T06:22:22;100133.81;;;39.85;23.58
49567;BME280;35472;50.514;30.448;2022-07-04T06:24:48;100120.97;;;38.74;24.22
49567;BME280;35472;50.514;30.448;2022-07-04T06:27:13;100125.41;;;36.55;26.22
49567;BME280;35472;50.514;30.448;2022-07-04T06:29:39;100129.03;;;37.94;24.42
49567;BME280;35472;50.514;30.448;2022-07-04T06:32:06;100123.44;;;37.90;24.97
49567;BME280;35472;50.514;30.448;2022-07-04T06:34:31;100118.16;;;38.61;24.25
49567;BME280;35472;50.514;30.448;2022-07-04T06:37:15;100112.97;;;38.47;24.41
49567;BME280;35472;50.514;30.448;2022-07-04T06:39:40;100114.53;;;38.83;23.41
49567;BME280;35472;50.514;30.448;2022-07-04T06:42:06;100111.81;;;38.79;24.29
49567;BME280;35472;50.514;30.448;2022-07-04T06:44:31;100111.72;;;38.70;23.85
49567;BME280;35472;50.514;30.448;2022-07-04T06:46:57;100109.66;;;38.83;24.01
49567;BME280;35472;50.514;30.448;2022-07-04T06:49:22;100104.97;;;38.77;23.67
49567;BME280;35472;50.514;30.448;2022-07-04T06:51:47;100105.88;;;39.39;24.08
49567;BME280;35472;50.514;30.448;2022-07-04T06:54:14;100109.22;;;39.38;23.96
49567;BME280;35472;50.514;30.448;2022-07-04T06:56:39;100106.81;;;40.26;23.29
49567;BME280;35472;50.514;30.448;2022-07-04T06:59:05;100103.34;;;40.77;22.75
49567;BME280;35472;50.514;30.448;2022-07-04T07:01:30;100100.44;;;40.22;23.37
49567;BME280;35472;50.514;30.448;2022-07-04T07:03:56;100095.69;;;40.46;22.72
49567;BME280;35472;50.514;30.448;2022-07-04T07:06:21;100104.78;;;39.77;23.77
49567;BME280;35472;50.514;30.448;2022-07-04T07:08:49;100101.19;;;39.24;23.54
49567;BME280;35472;50.514;30.448;2022-07-04T07:11:15;100097.03;;;38.94;24.11
49567;BME280;35472;50.514;30.448;2022-07-04T07:13:49;100101.47;;;37.52;25.00
49567;BME280;35472;50.514;30.448;2022-07-04T07:16:16;100092.75;;;38.20;24.77
49567;BME280;35472;50.514;30.448;2022-07-04T07:18:42;100086.84;;;38.49;25.21
49567;BME280;35472;50.514;30.448;2022-07-04T07:21:08;100104.69;;;38.62;24.67
49567;BME280;35472;50.514;30.448;2022-07-04T07:23:34;100104.22;;;37.56;25.00
49567;BME280;35472;50.514;30.448;2022-07-04T07:25:59;100109.56;;;38.74;24.59
49567;BME280;35472;50.514;30.448;2022-07-04T07:28:24;100110.00;;;37.52;24.74
49567;BME280;35472;50.514;30.448;2022-07-04T07:30:50;100104.47;;;35.67;25.09
49567;BME280;35472;50.514;30.448;2022-07-04T07:33:15;100105.47;;;37.80;23.50
49567;BME280;35472;50.514;30.448;2022-07-04T07:35:41;100104.22;;;37.81;25.25
49567;BME280;35472;50.514;30.448;2022-07-04T07:38:06;100097.66;;;38.19;25.07
49567;BME280;35472;50.514;30.448;2022-07-04T07:40:32;100099.66;;;35.48;26.69
49567;BME280;35472;50.514;30.448;2022-07-04T07:42:58;100096.94;;;35.77;25.99
49567;BME280;35472;50.514;30.448;2022-07-04T07:45:23;100096.66;;;35.71;26.36
49567;BME280;35472;50.514;30.448;2022-07-04T07:47:49;100096.84;;;35.64;26.74
49567;BME280;35472;50.514;30.448;2022-07-04T07:50:14;100100.97;;;36.87;25.04
49567;BME280;35472;50.514;30.448;2022-07-04T07:52:40;100097.94;;;36.03;25.91
49567;BME280;35472;50.514;30.448;2022-07-04T07:55:06;100105.84;;;36.57;26.33
49567;BME280;35472;50.514;30.448;2022-07-04T07:57:32;100090.47;;;35.77;26.55
49567;BME280;35472;50.514;30.448;2022-07-04T07:59:57;100097.44;;;36.37;25.38
49567;BME280;35472;50.514;30.448;2022-07-04T08:02:23;100101.28;;;35.29;26.61
49567;BME280;35472;50.514;30.448;2022-07-04T08:05:09;100092.34;;;34.51;27.50
49567;BME280;35472;50.514;30.448;2022-07-04T08:07:35;100097.06;;;36.22;26.01
49567;BME280;35472;50.514;30.448;2022-07-04T08:10:00;100089.22;;;36.26;26.83
49567;BME280;35472;50.514;30.448;2022-07-04T08:12:26;100095.66;;;34.46;27.40
49567;BME280;35472;50.514;30.448;2022-07-04T08:14:51;100095.66;;;34.46;27.68
49567;BME280;35472;50.514;30.448;2022-07-04T08:17:16;100090.97;;;36.37;26.66
49567;BME280;35472;50.514;30.448;2022-07-04T08:19:42;100088.59;;;34.98;26.55
49567;BME280;35472;50.514;30.448;2022-07-04T08:22:07;100083.81;;;35.67;26.70
49567;BME280;35472;50.514;30.448;2022-07-04T08:24:33;100078.56;;;34.93;26.52
49567;BME280;35472;50.514;30.448;2022-07-04T08:26:59;100082.44;;;35.39;26.05
49567;BME280;35472;50.514;30.448;2022-07-04T08:29:24;100074.22;;;35.61;26.36
49567;BME280;35472;50.514;30.448;2022-07-04T08:31:52;100072.13;;;33.79;28.23
49567;BME280;35472;50.514;30.448;2022-07-04T08:34:18;100067.06;;;33.67;28.27
49567;BME280;35472;50.514;30.448;2022-07-04T08:36:43;100078.56;;;34.06;28.51
49567;BME280;35472;50.514;30.448;2022-07-04T08:39:09;100075.94;;;34.43;27.78
49567;BME280;35472;50.514;30.448;2022-07-04T08:41:40;100082.97;;;33.84;28.51
49567;BME280;35472;50.514;30.448;2022-07-04T08:44:07;100079.25;;;33.06;28.40
49567;BME280;35472;50.514;30.448;2022-07-04T08:46:38;100082.22;;;33.26;28.05
49567;BME280;35472;50.514;30.448;2022-07-04T08:49:10;100073.97;;;33.66;27.97
49567;BME280;35472;50.514;30.448;2022-07-04T08:54:24;100071.81;;;32.51;29.37
49567;BME280;35472;50.514;30.448;2022-07-04T08:57:08;100068.56;;;32.90;28.57
49567;BME280;35472;50.514;30.448;2022-07-04T08:59:53;100076.81;;;31.32;30.36
49567;BME280;35472;50.514;30.448;2022-07-04T09:02:21;100069.16;;;31.29;30.96
49567;BME280;35472;50.514;30.448;2022-07-04T09:04:49;100083.84;;;32.59;28.77
49567;BME280;35472;50.514;30.448;2022-07-04T09:07:14;100082.78;;;32.79;28.37
49567;BME280;35472;50.514;30.448;2022-07-04T09:09:40;100087.78;;;31.75;29.53
49567;BME280;35472;50.514;30.448;2022-07-04T09:12:10;100073.03;;;31.57;30.08
49567;BME280;35472;50.514;30.448;2022-07-04T09:14:36;100083.13;;;32.85;28.47
49567;BME280;35472;50.514;30.448;2022-07-04T09:17:02;100070.44;;;32.66;29.08
49567;BME280;35472;50.514;30.448;2022-07-04T09:19:28;100067.22;;;33.29;27.45
49567;BME280;35472;50.514;30.448;2022-07-04T09:21:54;100070.00;;;32.30;29.13
49567;BME280;35472;50.514;30.448;2022-07-04T09:24:48;100069.69;;;32.62;28.46
49567;BME280;35472;50.514;30.448;2022-07-04T09:27:31;100070.19;;;32.12;29.26
49567;BME280;35472;50.514;30.448;2022-07-04T09:29:57;100074.50;;;31.72;29.62
49567;BME280;35472;50.514;30.448;2022-07-04T09:32:46;100063.88;;;31.97;29.64
49567;BME280;35472;50.514;30.448;2022-07-04T09:35:32;100076.03;;;31.87;30.14
49567;BME280;35472;50.514;30.448;2022-07-04T09:38:00;100063.09;;;31.93;29.91
49567;BME280;35472;50.514;30.448;2022-07-04T09:42:59;100064.38;;;32.68;28.78
49567;BME280;35472;50.514;30.448;2022-07-04T09:45:25;100059.88;;;33.85;28.55
49567;BME280;35472;50.514;30.448;2022-07-04T09:47:55;100062.34;;;33.60;27.00
49567;BME280;35472;50.514;30.448;2022-07-04T09:50:23;100066.84;;;32.21;29.05
49567;BME280;35472;50.514;30.448;2022-07-04T09:52:57;100074.75;;;32.78;28.74
49567;BME280;35472;50.514;30.448;2022-07-04T09:55:29;100067.63;;;32.25;29.20
49567;BME280;35472;50.514;30.448;2022-07-04T09:58:05;100067.13;;;32.37;28.64
49567;BME280;35472;50.514;30.448;2022-07-04T10:00:33;100061.91;;;32.32;29.09
49567;BME280;35472;50.514;30.448;2022-07-04T10:03:18;100058.31;;;33.03;28.56
49567;BME280;35472;50.514;30.448;2022-07-04T10:06:33;100044.34;;;33.20;29.44
49567;BME280;35472;50.514;30.448;2022-07-04T10:08:35;100048.06;;;33.44;28.80
49567;BME280;35472;50.514;30.448;2022-07-04T10:11:02;100042.91;;;32.74;28.97
49567;BME280;35472;50.514;30.448;2022-07-04T10:13:28;100051.63;;;32.87;28.32
49567;BME280;35472;50.514;30.448;2022-07-04T10:15:53;100042.53;;;33.33;27.66
49567;BME280;35472;50.514;30.448;2022-07-04T10:18:20;100039.41;;;32.97;27.68
49567;BME280;35472;50.514;30.448;2022-07-04T10:20:47;100035.72;;;33.57;27.76
49567;BME280;35472;50.514;30.448;2022-07-04T10:23:15;100040.50;;;32.38;28.86
49567;BME280;35472;50.514;30.448;2022-07-04T10:25:40;100041.88;;;32.61;28.81
49567;BME280;35472;50.514;30.448;2022-07-04T10:28:08;100032.88;;;33.03;27.82
49567;BME280;35472;50.514;30.448;2022-07-04T10:30:35;100040.72;;;32.54;28.67
49567;BME280;35472;50.514;30.448;2022-07-04T10:33:04;100034.94;;;32.99;28.52
49567;BME280;35472;50.514;30.448;2022-07-04T10:35:49;100035.94;;;32.82;28.10
49567;BME280;35472;50.514;30.448;2022-07-04T10:38:18;100027.28;;;33.27;27.20
49567;BME280;35472;50.514;30.448;2022-07-04T10:51:43;100008.09;;;33.15;26.12
49567;BME280;35472;50.514;30.448;2022-07-04T10:54:28;100012.78;;;32.64;26.56
49567;BME280;35472;50.514;30.448;2022-07-04T10:57:06;100011.38;;;33.09;25.90
49567;BME280;35472;50.514;30.448;2022-07-04T10:59:33;100016.31;;;32.37;27.31
49567;BME280;35472;50.514;30.448;2022-07-04T11:04:56;100007.81;;;33.83;26.34
49567;BME280;35472;50.514;30.448;2022-07-04T11:17:59;99993.56;;;32.51;27.65
49567;BME280;35472;50.514;30.448;2022-07-04T11:20:27;99995.66;;;32.10;27.69
49567;BME280;35472;50.514;30.448;2022-07-04T11:23:12;99993.81;;;31.92;27.91
49567;BME280;35472;50.514;30.448;2022-07-04T11:25:39;99990.00;;;32.10;27.87
49567;BME280;35472;50.514;30.448;2022-07-04T11:30:56;99985.06;;;31.76;27.23
49567;BME280;35472;50.514;30.448;2022-07-04T11:33:28;99985.34;;;31.44;27.83
49567;BME280;35472;50.514;30.448;2022-07-04T11:36:07;99988.97;;;31.44;28.23
49567;BME280;35472;50.514;30.448;2022-07-04T11:38:47;99975.84;;;31.16;28.04
49567;BME280;35472;50.514;30.448;2022-07-04T11:41:13;99979.75;;;31.85;27.71
49567;BME280;35472;50.514;30.448;2022-07-04T11:43:57;99969.78;;;32.83;26.81
49567;BME280;35472;50.514;30.448;2022-07-04T11:46:42;99967.19;;;32.27;27.48
49567;BME280;35472;50.514;30.448;2022-07-04T11:49:09;99959.84;;;33.02;27.69
49567;BME280;35472;50.514;30.448;2022-07-04T11:51:35;99954.97;;;33.02;26.29
49567;BME280;35472;50.514;30.448;2022-07-04T11:54:06;99957.00;;;32.41;27.66
49567;BME280;35472;50.514;30.448;2022-07-04T11:56:31;99966.00;;;31.91;28.74
49567;BME280;35472;50.514;30.448;2022-07-04T11:59:09;99954.13;;;32.75;28.52
49567;BME280;35472;50.514;30.448;2022-07-04T12:01:35;99956.97;;;33.29;28.26
49567;BME280;35472;50.514;30.448;2022-07-04T12:06:40;99955.00;;;32.72;29.06
49567;BME280;35472;50.514;30.448;2022-07-04T12:09:06;99947.22;;;33.33;28.36
49567;BME280;35472;50.514;30.448;2022-07-04T12:11:50;99953.28;;;33.08;28.69
49567;BME280;35472;50.514;30.448;2022-07-04T12:14:16;99946.81;;;33.08;28.54
49567;BME280;35472;50.514;30.448;2022-07-04T12:16:41;99937.50;;;33.34;28.42
49567;BME280;35472;50.514;30.448;2022-07-04T12:19:10;99946.75;;;33.12;27.74
49567;BME280;35472;50.514;30.448;2022-07-04T12:21:36;99947.59;;;32.51;27.85
49567;BME280;35472;50.514;30.448;2022-07-04T12:24:02;99947.03;;;32.94;27.51
49567;BME280;35472;50.514;30.448;2022-07-04T12:26:31;99935.78;;;33.44;27.18
49567;BME280;35472;50.514;30.448;2022-07-04T12:28:57;99934.06;;;33.50;27.10
49567;BME280;35472;50.514;30.448;2022-07-04T12:31:57;99936.41;;;33.28;28.13
49567;BME280;35472;50.514;30.448;2022-07-04T12:34:23;99933.56;;;33.55;27.37
49567;BME280;35472;50.514;30.448;2022-07-04T12:36:53;99930.81;;;34.15;26.54
49567;BME280;35472;50.514;30.448;2022-07-04T12:39:32;99935.94;;;33.57;26.94
49567;BME280;35472;50.514;30.448;2022-07-04T12:42:16;99930.63;;;34.46;26.42
49567;BME280;35472;50.514;30.448;2022-07-04T12:44:43;99930.81;;;34.15;26.69
49567;BME280;35472;50.514;30.448;2022-07-04T12:47:11;99935.03;;;33.36;26.66
49567;BME280;35472;50.514;30.448;2022-07-04T12:49:42;99936.19;;;33.66;26.95
49567;BME280;35472;50.514;30.448;2022-07-04T12:52:14;99931.59;;;33.02;27.47
49567;BME280;35472;50.514;30.448;2022-07-04T12:54:40;99930.16;;;32.60;27.54
49567;BME280;35472;50.514;30.448;2022-07-04T12:57:16;99928.59;;;32.82;27.65
49567;BME280;35472;50.514;30.448;2022-07-04T12:59:43;99922.47;;;33.65;26.91
49567;BME280;35472;50.514;30.448;2022-07-04T13:02:10;99920.69;;;33.74;26.52
49567;BME280;35472;50.514;30.448;2022-07-04T13:04:37;99929.81;;;33.62;26.76
49567;BME280;35472;50.514;30.448;2022-07-04T13:07:14;99913.66;;;33.35;27.04
49567;BME280;35472;50.514;30.448;2022-07-04T13:09:41;99920.31;;;33.49;26.68
49567;BME280;35472;50.514;30.448;2022-07-04T13:12:08;99915.19;;;33.87;26.58
49567;BME280;35472;50.514;30.448;2022-07-04T13:14:57;99902.69;;;33.65;26.81
49567;BME280;35472;50.514;30.448;2022-07-04T13:17:24;99905.59;;;34.44;27.16
49567;BME280;35472;50.514;30.448;2022-07-04T13:19:50;99897.50;;;34.03;27.12